Time;durP1;ratioP1;P1;durP2;ratioP2;P2;SDS_P1;SDS_P2;PMS_P1;PMS_P2;Temp;Humidity;BMP_temperature;BMP_pressure;BME280_temperature;BME280_humidity;BME280_pressure;Samples;Min_cycle;Max_cycle;Signal;HPM_P1;HPM_P2
2023/10/05 00:01:20;;;;;;;0.60;0.60;;;7.40;99.90;;;;;;5148804;27;20709;-74
2023/10/05 00:03:47;;;;;;;0.60;0.60;;;7.40;99.90;;;;;;5132593;27;20643;-74
2023/10/05 00:06:23;;;;;;;0.60;0.60;;;7.40;99.90;;;;;;5132671;27;20190;-74
2023/10/05 00:08:49;;;;;;;0.63;0.63;;;7.30;99.90;;;;;;5132371;27;20663;-73
2023/10/05 00:14:12;;;;;;;0.60;0.60;;;7.40;99.90;;;;;;5114203;27;20735;-74
2023/10/05 00:16:39;;;;;;;0.60;0.60;;;7.40;99.90;;;;;;5113102;27;20306;-74
2023/10/05 00:19:11;;;;;;;0.60;0.60;;;7.40;99.90;;;;;;5132272;27;20198;-74
2023/10/05 00:21:51;;;;;;;0.60;0.60;;;7.40;99.90;;;;;;5132083;27;20637;-75
2023/10/05 00:24:40;;;;;;;0.70;0.70;;;7.40;99.90;;;;;;5113691;27;20637;-74
2023/10/05 00:27:09;;;;;;;0.70;0.70;;;7.40;99.90;;;;;;5129023;27;20263;-72
2023/10/05 00:29:41;;;;;;;0.70;0.70;;;7.40;99.90;;;;;;5111527;28;20295;-72
2023/10/05 00:32:34;;;;;;;0.68;0.68;;;7.40;99.90;;;;;;5111600;28;20233;-71
2023/10/05 00:35:16;;;;;;;0.63;0.63;;;7.40;99.90;;;;;;5111496;28;20187;-71
2023/10/05 00:37:46;;;;;;;0.70;0.70;;;7.50;99.90;;;;;;5092773;28;20210;-72
2023/10/05 00:40:34;;;;;;;0.70;0.70;;;7.50;99.90;;;;;;5111184;28;20191;-72
2023/10/05 00:43:11;;;;;;;0.60;0.60;;;7.50;99.90;;;;;;5120916;27;20293;-73
2023/10/05 00:45:38;;;;;;;0.52;0.52;;;7.50;99.90;;;;;;5131567;27;20205;-73
2023/10/05 00:48:19;;;;;;;0.70;0.70;;;7.60;99.90;;;;;;5117031;27;20635;-72
2023/10/05 00:50:46;;;;;;;0.75;0.75;;;7.60;99.90;;;;;;5111033;28;20294;-72
2023/10/05 00:53:13;;;;;;;0.60;0.60;;;7.60;99.90;;;;;;5096461;27;20230;-72
2023/10/05 00:55:43;;;;;;;0.60;0.60;;;7.60;99.90;;;;;;5152110;27;20197;-72
2023/10/05 00:58:14;;;;;;;0.60;0.60;;;7.60;99.90;;;;;;5139911;27;20197;-72
2023/10/05 01:00:53;;;;;;;0.70;0.70;;;7.70;99.90;;;;;;5131413;27;20194;-71
2023/10/05 01:06:12;;;;;;;0.68;0.68;;;7.70;99.90;;;;;;5131179;27;20219;-73
2023/10/05 01:08:54;;;;;;;0.50;0.50;;;7.70;99.90;;;;;;5131129;27;20194;-72
2023/10/05 01:11:33;;;;;;;0.70;0.70;;;7.80;99.90;;;;;;5130550;27;20247;-71
2023/10/05 01:14:00;;;;;;;0.63;0.63;;;7.80;99.90;;;;;;5130870;27;20183;-72
2023/10/05 01:16:26;;;;;;;0.70;0.70;;;7.80;99.90;;;;;;5130594;27;20243;-72
2023/10/05 01:18:52;;;;;;;0.60;0.60;;;7.80;99.90;;;;;;5130566;27;20198;-73
2023/10/05 01:21:18;;;;;;;0.60;0.60;;;7.80;99.90;;;;;;5130844;27;20199;-72
2023/10/05 01:23:48;;;;;;;0.60;0.60;;;7.80;99.90;;;;;;5124063;27;20241;-73
2023/10/05 01:26:14;;;;;;;0.60;0.60;;;7.80;99.90;;;;;;5109857;28;20252;-73
2023/10/05 01:28:41;;;;;;;0.60;0.60;;;8.00;99.90;;;;;;5110035;28;20187;-71
2023/10/05 01:31:16;;;;;;;0.60;0.60;;;8.00;99.90;;;;;;5109852;28;20207;-74
2023/10/05 01:33:43;;;;;;;0.70;0.70;;;8.10;99.90;;;;;;5109975;28;20266;-71
2023/10/05 01:36:11;;;;;;;0.43;0.43;;;8.10;99.90;;;;;;5110482;28;20196;-71
2023/10/05 01:38:37;;;;;;;0.60;0.60;;;8.10;99.90;;;;;;5115233;27;20604;-73
2023/10/05 01:41:05;;;;;;;0.70;0.70;;;8.10;99.90;;;;;;5112894;27;20206;-72
2023/10/05 01:43:31;;;;;;;0.60;0.60;;;8.20;99.90;;;;;;5131035;27;20202;-72
2023/10/05 01:45:56;;;;;;;0.60;0.60;;;8.20;99.90;;;;;;5131255;27;20209;-73
2023/10/05 01:48:27;;;;;;;0.70;0.70;;;8.20;99.90;;;;;;5130695;27;20764;-71
2023/10/05 01:50:54;;;;;;;0.65;0.65;;;8.20;99.90;;;;;;5111974;27;20258;-73
2023/10/05 01:53:20;;;;;;;0.60;0.60;;;8.20;99.90;;;;;;5110603;27;20233;-73
2023/10/05 01:55:47;;;;;;;0.73;0.73;;;8.20;99.90;;;;;;5130364;27;20574;-72
2023/10/05 01:58:26;;;;;;;0.60;0.60;;;8.20;99.90;;;;;;5130277;27;20274;-73
2023/10/05 02:00:54;;;;;;;0.60;0.60;;;8.20;99.90;;;;;;5130281;27;20201;-71
2023/10/05 02:03:23;;;;;;;0.60;0.60;;;8.20;99.90;;;;;;5129911;27;20198;-72
2023/10/05 02:05:50;;;;;;;0.60;0.60;;;8.20;99.90;;;;;;5130111;27;20577;-73
2023/10/05 02:08:16;;;;;;;0.70;0.70;;;8.20;99.90;;;;;;5130159;27;20507;-72
2023/10/05 02:10:46;;;;;;;0.60;0.60;;;8.20;99.90;;;;;;5130026;27;20259;-72
2023/10/05 02:13:12;;;;;;;0.70;0.70;;;8.20;99.90;;;;;;5130068;27;20654;-73
2023/10/05 02:15:48;;;;;;;0.70;0.70;;;8.20;99.90;;;;;;5129750;27;20186;-72
2023/10/05 02:18:23;;;;;;;0.70;0.70;;;8.20;99.90;;;;;;5130344;27;20191;-71
2023/10/05 02:20:56;;;;;;;0.70;0.70;;;8.30;99.90;;;;;;5116361;27;20211;-72
2023/10/05 02:23:25;;;;;;;0.60;0.60;;;8.20;99.90;;;;;;5109219;28;20286;-72
2023/10/05 02:26:23;;;;;;;0.70;0.70;;;8.20;99.90;;;;;;5109264;28;20689;-71
2023/10/05 02:28:49;;;;;;;0.57;0.57;;;8.20;99.90;;;;;;5109456;28;20716;-72
2023/10/05 02:31:15;;;;;;;0.60;0.60;;;8.20;99.90;;;;;;5090795;28;20212;-72
2023/10/05 02:33:43;;;;;;;0.57;0.57;;;8.20;99.90;;;;;;5109090;28;20243;-73
2023/10/05 02:36:11;;;;;;;0.70;0.70;;;8.20;99.90;;;;;;5124963;27;20229;-71
2023/10/05 02:38:48;;;;;;;0.60;0.60;;;8.20;99.90;;;;;;5129299;27;20183;-72
2023/10/05 02:41:16;;;;;;;0.80;0.80;;;8.30;99.90;;;;;;5129366;28;20277;-72
2023/10/05 02:43:51;;;;;;;0.60;0.60;;;8.20;99.90;;;;;;5129609;28;20215;-73
2023/10/05 02:46:17;;;;;;;0.70;0.70;;;8.20;99.90;;;;;;5110890;28;20202;-71
2023/10/05 02:48:43;;;;;;;0.68;0.68;;;8.20;99.90;;;;;;5129876;28;20205;-73
2023/10/05 02:51:11;;;;;;;0.63;0.63;;;8.20;99.90;;;;;;5129870;28;20229;-73
2023/10/05 02:53:41;;;;;;;0.70;0.70;;;8.20;99.90;;;;;;5116357;27;20222;-72
2023/10/05 02:56:20;;;;;;;0.63;0.63;;;8.10;99.90;;;;;;5151006;27;20586;-73
2023/10/05 02:58:48;;;;;;;0.70;0.70;;;8.10;99.90;;;;;;5150412;27;20676;-72
2023/10/05 03:01:15;;;;;;;0.70;0.70;;;8.00;99.90;;;;;;5139284;27;20206;-72
2023/10/05 03:03:43;;;;;;;0.60;0.60;;;8.10;99.90;;;;;;5104867;28;20203;-73
2023/10/05 03:06:10;;;;;;;0.60;0.60;;;8.00;99.90;;;;;;5108968;28;20226;-72
2023/10/05 03:08:36;;;;;;;0.70;0.70;;;8.00;99.90;;;;;;5108746;28;20191;-72
2023/10/05 03:11:03;;;;;;;0.60;0.60;;;8.00;99.90;;;;;;5108854;28;20207;-73
2023/10/05 03:13:29;;;;;;;0.60;0.60;;;8.00;99.90;;;;;;5108517;28;20697;-73
2023/10/05 03:15:55;;;;;;;0.63;0.63;;;8.00;99.90;;;;;;5112579;28;20199;-72
2023/10/05 03:18:21;;;;;;;0.70;0.70;;;8.00;99.90;;;;;;5129492;28;20196;-73
2023/10/05 03:20:47;;;;;;;0.60;0.60;;;8.00;99.90;;;;;;5129364;28;20195;-73
2023/10/05 03:23:14;;;;;;;0.60;0.60;;;8.00;99.90;;;;;;5129354;28;20199;-73
2023/10/05 03:25:41;;;;;;;0.70;0.70;;;8.10;99.90;;;;;;5110755;28;20771;-72
2023/10/05 03:28:06;;;;;;;0.70;0.70;;;8.10;99.90;;;;;;5129488;28;20556;-72
2023/10/05 03:30:35;;;;;;;0.70;0.70;;;8.10;99.90;;;;;;5128914;28;20209;-73
2023/10/05 03:33:03;;;;;;;0.77;0.77;;;8.10;99.90;;;;;;5129121;28;20202;-72
2023/10/05 03:35:33;;;;;;;0.60;0.60;;;8.10;99.90;;;;;;5125381;28;20371;-72
2023/10/05 03:38:03;;;;;;;0.60;0.60;;;8.10;99.90;;;;;;5108679;28;20266;-72
2023/10/05 03:40:35;;;;;;;0.65;0.65;;;8.00;99.90;;;;;;5108406;28;20196;-73
2023/10/05 03:43:01;;;;;;;0.50;0.50;;;8.10;99.90;;;;;;5090273;28;20298;-73
2023/10/05 03:45:27;;;;;;;0.60;0.60;;;8.10;99.90;;;;;;5108840;28;20333;-73
2023/10/05 03:47:53;;;;;;;0.50;0.50;;;8.10;99.90;;;;;;5108622;28;20215;-72
2023/10/05 03:50:19;;;;;;;0.60;0.60;;;8.10;99.90;;;;;;5109906;28;20571;-72
2023/10/05 03:52:45;;;;;;;0.60;0.60;;;8.10;99.90;;;;;;5111876;28;20227;-73
2023/10/05 03:55:12;;;;;;;0.70;0.70;;;8.10;99.90;;;;;;5150014;27;20204;-72
2023/10/05 03:57:38;;;;;;;0.70;0.70;;;8.10;99.90;;;;;;5153463;27;20186;-73
2023/10/05 04:00:23;;;;;;;0.60;0.60;;;8.10;99.90;;;;;;5153834;27;20676;-73
2023/10/05 04:02:53;;;;;;;0.60;0.60;;;8.10;99.90;;;;;;5135102;27;20209;-73
2023/10/05 04:05:22;;;;;;;0.68;0.68;;;8.10;99.90;;;;;;5153597;27;20190;-73
2023/10/05 04:07:50;;;;;;;0.60;0.60;;;8.10;99.90;;;;;;5135063;27;20289;-73
2023/10/05 04:10:21;;;;;;;0.60;0.60;;;8.10;99.90;;;;;;5134498;27;20692;-73
2023/10/05 04:12:48;;;;;;;0.70;0.70;;;8.00;99.90;;;;;;5134760;27;20647;-73
2023/10/05 04:15:17;;;;;;;0.70;0.70;;;8.00;99.90;;;;;;5093293;28;20200;-74
2023/10/05 04:17:50;;;;;;;0.70;0.70;;;8.00;99.90;;;;;;5111441;28;20199;-73
2023/10/05 04:20:22;;;;;;;0.60;0.60;;;7.90;99.90;;;;;;5093243;28;20260;-73
2023/10/05 04:22:49;;;;;;;0.50;0.50;;;7.90;99.90;;;;;;5093505;28;20211;-72
2023/10/05 04:25:16;;;;;;;0.60;0.60;;;7.90;99.90;;;;;;5111587;28;20189;-72
2023/10/05 04:27:46;;;;;;;0.60;0.60;;;7.90;99.90;;;;;;5100794;27;20226;-74
2023/10/05 04:30:17;;;;;;;0.63;0.63;;;7.90;99.90;;;;;;5132075;27;20198;-72
2023/10/05 04:32:43;;;;;;;0.60;0.60;;;7.90;99.90;;;;;;5120028;27;20602;-72
2023/10/05 04:37:48;;;;;;;0.60;0.60;;;7.80;99.90;;;;;;5132155;27;20197;-72
2023/10/05 04:40:15;;;;;;;0.60;0.60;;;7.80;99.90;;;;;;5131905;27;20210;-73
2023/10/05 04:42:41;;;;;;;0.65;0.65;;;7.80;99.90;;;;;;5131315;27;20206;-73
2023/10/05 04:45:12;;;;;;;0.60;0.60;;;7.70;99.90;;;;;;5131671;27;20320;-73
2023/10/05 04:47:38;;;;;;;0.63;0.63;;;7.70;99.90;;;;;;5131341;27;20191;-73
2023/10/05 04:50:08;;;;;;;0.60;0.60;;;7.70;99.90;;;;;;5131300;27;20281;-73
2023/10/05 04:52:34;;;;;;;0.70;0.70;;;7.60;99.90;;;;;;5131193;27;20262;-73
2023/10/05 04:55:18;;;;;;;0.70;0.70;;;7.70;99.90;;;;;;5130730;27;20274;-74
2023/10/05 04:57:55;;;;;;;0.70;0.70;;;7.60;99.90;;;;;;5131425;27;20183;-73
2023/10/05 05:03:16;;;;;;;0.60;0.60;;;7.70;99.90;;;;;;5130552;27;20252;-73
2023/10/05 05:08:27;;;;;;;0.60;0.60;;;7.70;99.90;;;;;;5126987;27;20290;-76
2023/10/05 05:10:53;;;;;;;0.57;0.57;;;7.70;99.90;;;;;;5110950;28;20306;-75
2023/10/05 05:13:20;;;;;;;0.70;0.70;;;7.70;99.90;;;;;;5110591;28;20194;-77
2023/10/05 05:15:46;;;;;;;0.70;0.70;;;7.70;99.90;;;;;;5110896;28;20689;-75
2023/10/05 05:18:14;;;;;;;0.60;0.60;;;7.60;99.90;;;;;;5111131;28;20191;-72
2023/10/05 05:20:41;;;;;;;0.57;0.57;;;7.60;99.90;;;;;;5110738;28;20192;-72
2023/10/05 05:23:07;;;;;;;0.70;0.70;;;7.60;99.90;;;;;;5111555;27;20195;-72
2023/10/05 05:25:33;;;;;;;0.55;0.55;;;7.50;99.90;;;;;;5112961;27;20243;-72
2023/10/05 05:28:01;;;;;;;0.50;0.50;;;7.50;99.90;;;;;;5131100;27;20209;-72
2023/10/05 05:30:29;;;;;;;0.52;0.52;;;7.50;99.90;;;;;;5131173;27;20202;-72
2023/10/05 05:32:54;;;;;;;0.50;0.50;;;7.50;99.90;;;;;;5112695;27;20187;-72
2023/10/05 05:35:20;;;;;;;0.60;0.60;;;7.40;99.90;;;;;;5130793;27;20585;-72
2023/10/05 05:37:46;;;;;;;0.60;0.60;;;7.40;99.90;;;;;;5130946;27;20182;-73
2023/10/05 05:40:12;;;;;;;0.60;0.60;;;7.40;99.90;;;;;;5112709;27;20531;-72
2023/10/05 05:42:44;;;;;;;0.60;0.60;;;7.40;99.90;;;;;;5131185;27;20774;-72
2023/10/05 05:45:16;;;;;;;0.60;0.60;;;7.40;99.90;;;;;;5131087;27;20692;-73
2023/10/05 05:47:44;;;;;;;0.68;0.68;;;7.30;99.90;;;;;;5130496;27;20186;-72
2023/10/05 05:50:15;;;;;;;0.50;0.50;;;7.30;99.90;;;;;;5130886;27;20205;-73
2023/10/05 05:52:41;;;;;;;0.60;0.60;;;7.30;99.90;;;;;;5130502;27;20237;-72
2023/10/05 05:55:13;;;;;;;0.60;0.60;;;7.40;99.90;;;;;;5126828;27;20202;-72
2023/10/05 05:57:45;;;;;;;0.70;0.70;;;7.30;99.90;;;;;;5129323;27;20231;-73
2023/10/05 06:00:11;;;;;;;0.70;0.70;;;7.30;99.90;;;;;;5129216;27;20210;-72
2023/10/05 06:02:40;;;;;;;0.70;0.70;;;7.40;99.90;;;;;;5130380;27;20214;-72
2023/10/05 06:05:10;;;;;;;0.70;0.70;;;7.30;99.90;;;;;;5127054;27;20711;-72
2023/10/05 06:07:42;;;;;;;0.60;0.60;;;7.30;99.90;;;;;;5110159;28;20688;-73
2023/10/05 06:10:12;;;;;;;0.65;0.65;;;7.30;99.90;;;;;;5091572;28;20210;-72
2023/10/05 06:12:42;;;;;;;0.60;0.60;;;7.20;99.90;;;;;;5109919;28;20200;-72
2023/10/05 06:15:09;;;;;;;0.60;0.60;;;7.20;99.90;;;;;;5091586;28;20670;-72
2023/10/05 06:17:38;;;;;;;0.60;0.60;;;7.20;99.90;;;;;;5091498;28;20195;-73
2023/10/05 06:20:14;;;;;;;0.70;0.70;;;7.20;99.90;;;;;;5109745;28;20684;-72
2023/10/05 06:22:42;;;;;;;0.50;0.50;;;7.20;99.90;;;;;;5109757;28;20324;-72
2023/10/05 06:25:09;;;;;;;0.70;0.70;;;7.20;99.90;;;;;;5091116;28;20696;-72
2023/10/05 06:27:37;;;;;;;0.60;0.60;;;7.20;99.90;;;;;;5109590;28;20650;-72
2023/10/05 06:30:06;;;;;;;0.60;0.60;;;7.10;99.90;;;;;;5109141;28;20204;-75
2023/10/05 06:32:32;;;;;;;0.70;0.70;;;7.10;99.90;;;;;;5109084;28;20576;-76
2023/10/05 06:34:58;;;;;;;0.60;0.60;;;7.10;99.90;;;;;;5109077;28;20187;-75
2023/10/05 06:37:26;;;;;;;0.70;0.70;;;7.10;99.90;;;;;;5090529;28;20192;-75
2023/10/05 06:39:54;;;;;;;0.70;0.70;;;7.10;99.90;;;;;;5125136;27;20289;-76
2023/10/05 06:42:20;;;;;;;0.70;0.70;;;7.20;99.90;;;;;;5110854;28;20689;-75
2023/10/05 06:44:46;;;;;;;0.70;0.70;;;7.30;99.90;;;;;;5129647;28;20183;-76
2023/10/05 06:49:56;;;;;;;0.63;0.63;;;7.30;99.90;;;;;;5129644;28;20209;-75
2023/10/05 06:52:22;;;;;;;0.50;0.50;;;7.30;99.90;;;;;;5129273;28;20218;-76
2023/10/05 06:54:47;;;;;;;0.60;0.60;;;7.40;99.90;;;;;;5129277;28;20195;-77
2023/10/05 06:57:13;;;;;;;0.68;0.68;;;7.50;99.90;;;;;;5128157;28;20195;-75
2023/10/05 06:59:42;;;;;;;0.50;0.50;;;7.60;99.90;;;;;;5129329;28;20195;-76
2023/10/05 07:02:08;;;;;;;0.60;0.60;;;7.60;99.90;;;;;;5115525;27;20667;-75
2023/10/05 07:04:35;;;;;;;0.50;0.50;;;7.80;99.90;;;;;;5108704;28;20266;-76
2023/10/05 07:07:03;;;;;;;0.55;0.55;;;7.80;99.90;;;;;;5108769;28;20274;-75
2023/10/05 07:09:30;;;;;;;0.50;0.50;;;7.90;99.90;;;;;;5108666;28;20642;-75
2023/10/05 07:11:56;;;;;;;0.75;0.75;;;7.90;99.90;;;;;;5108738;28;20565;-76
2023/10/05 07:14:21;;;;;;;0.70;0.70;;;8.00;99.90;;;;;;5108765;28;20305;-76
2023/10/05 07:16:47;;;;;;;0.60;0.60;;;8.00;99.90;;;;;;5119162;28;20205;-76
2023/10/05 07:19:13;;;;;;;0.70;0.70;;;8.10;99.90;;;;;;5129309;28;20654;-76
2023/10/05 07:21:38;;;;;;;0.70;0.70;;;8.20;99.90;;;;;;5115700;28;20381;-76
2023/10/05 07:24:04;;;;;;;0.70;0.70;;;8.30;99.90;;;;;;5090165;28;20199;-76
2023/10/05 07:26:30;;;;;;;0.68;0.68;;;8.40;99.90;;;;;;5112234;28;20199;-75
2023/10/05 07:28:59;;;;;;;0.70;0.70;;;8.40;99.90;;;;;;5112915;28;20577;-73
2023/10/05 07:31:24;;;;;;;0.50;0.50;;;8.50;99.90;;;;;;5094107;28;20211;-72
2023/10/05 07:33:50;;;;;;;0.50;0.50;;;8.50;99.90;;;;;;5094577;28;20560;-72
2023/10/05 07:36:17;;;;;;;0.75;0.75;;;8.50;99.90;;;;;;5094317;28;20693;-73
2023/10/05 07:38:44;;;;;;;0.65;0.65;;;8.60;99.90;;;;;;5119297;27;20195;-73
2023/10/05 07:41:11;;;;;;;0.57;0.57;;;8.80;99.90;;;;;;5133300;27;20293;-73
2023/10/05 07:43:37;;;;;;;0.60;0.60;;;8.80;99.90;;;;;;5114189;27;20198;-73
2023/10/05 07:46:06;;;;;;;0.70;0.70;;;8.90;99.90;;;;;;5133185;27;20270;-73
2023/10/05 07:48:32;;;;;;;0.60;0.60;;;9.00;99.90;;;;;;5132699;27;20214;-73
2023/10/05 07:50:58;;;;;;;0.65;0.65;;;9.10;99.90;;;;;;5132695;27;20242;-74
2023/10/05 07:53:25;;;;;;;0.70;0.70;;;9.20;99.90;;;;;;5121265;27;20339;-74
2023/10/05 07:55:52;;;;;;;0.65;0.65;;;9.20;99.90;;;;;;5132760;27;20432;-74
2023/10/05 07:58:19;;;;;;;0.60;0.60;;;9.20;99.90;;;;;;5118973;27;20808;-73
2023/10/05 08:00:48;;;;;;;0.80;0.80;;;9.20;99.90;;;;;;5093628;28;20424;-74
2023/10/05 08:03:14;;;;;;;0.60;0.60;;;9.30;99.90;;;;;;5111902;28;20573;-73
2023/10/05 08:05:40;;;;;;;0.60;0.60;;;9.40;99.90;;;;;;5093399;28;20195;-74
2023/10/05 08:08:05;;;;;;;0.93;0.88;;;9.40;99.90;;;;;;5112082;28;20311;-74
2023/10/05 08:10:31;;;;;;;0.60;0.60;;;9.50;99.90;;;;;;5111675;28;20215;-74
2023/10/05 08:13:03;;;;;;;0.60;0.60;;;9.60;99.90;;;;;;5121455;27;20195;-74
2023/10/05 08:15:29;;;;;;;0.60;0.60;;;9.60;99.90;;;;;;5132219;27;20183;-74
2023/10/05 08:17:54;;;;;;;0.70;0.70;;;9.60;99.90;;;;;;5132166;27;20199;-74
2023/10/05 08:20:20;;;;;;;0.70;0.70;;;9.70;99.90;;;;;;5132285;27;20194;-73
2023/10/05 08:22:49;;;;;;;0.70;0.70;;;9.70;99.90;;;;;;5113697;27;20251;-74
2023/10/05 08:25:16;;;;;;;0.63;0.63;;;9.90;99.90;;;;;;5113515;27;20190;-74
2023/10/05 08:27:48;;;;;;;0.60;0.60;;;9.90;99.90;;;;;;5113175;27;20202;-74
2023/10/05 08:30:14;;;;;;;0.60;0.60;;;9.90;99.90;;;;;;5131863;27;20795;-74
2023/10/05 08:32:40;;;;;;;0.70;0.70;;;10.00;99.90;;;;;;5131980;27;20271;-74
2023/10/05 08:35:13;;;;;;;0.60;0.60;;;10.10;99.90;;;;;;5131619;27;20302;-74
2023/10/05 08:37:42;;;;;;;0.60;0.60;;;10.30;99.90;;;;;;5131583;27;20293;-74
2023/10/05 08:41:06;;;;;;;1.52;1.35;;;10.30;99.90;;;;;;5131890;27;20654;-76
2023/10/05 08:43:10;;;;;;;0.63;0.63;;;10.20;99.90;;;;;;5120401;27;20271;-76
2023/10/05 08:45:50;;;;;;;0.60;0.60;;;10.30;99.90;;;;;;5112787;27;20250;-76
2023/10/05 08:48:28;;;;;;;0.70;0.70;;;10.40;99.90;;;;;;5132022;27;20710;-74
2023/10/05 08:50:58;;;;;;;0.60;0.60;;;10.40;99.90;;;;;;5130003;27;20291;-74
2023/10/05 08:53:24;;;;;;;0.50;0.50;;;10.60;99.90;;;;;;5130591;27;20306;-74
2023/10/05 08:55:54;;;;;;;0.60;0.60;;;10.90;99.90;;;;;;5131743;27;20285;-74
2023/10/05 08:58:21;;;;;;;0.60;0.60;;;11.00;99.90;;;;;;5112812;27;20194;-74
2023/10/05 09:00:48;;;;;;;0.52;0.52;;;11.20;99.90;;;;;;5131421;27;20642;-74
2023/10/05 09:03:35;;;;;;;0.52;0.52;;;11.20;99.90;;;;;;5112883;27;20195;-74
2023/10/05 09:06:24;;;;;;;0.55;0.55;;;11.30;99.90;;;;;;5112838;27;20665;-75
2023/10/05 09:08:57;;;;;;;0.60;0.60;;;11.40;99.90;;;;;;5112956;27;20579;-74
2023/10/05 09:11:33;;;;;;;0.60;0.60;;;11.50;99.90;;;;;;5130930;27;20221;-74
2023/10/05 09:14:23;;;;;;;0.60;0.60;;;11.40;99.90;;;;;;5131181;27;20195;-74
2023/10/05 09:16:55;;;;;;;0.60;0.60;;;11.40;99.90;;;;;;5131314;27;20198;-74
2023/10/05 09:19:25;;;;;;;0.60;0.60;;;11.30;99.90;;;;;;5112388;27;20222;-74
2023/10/05 09:22:09;;;;;;;0.60;0.60;;;11.40;99.90;;;;;;5131386;27;20222;-74
2023/10/05 09:24:36;;;;;;;0.80;0.80;;;11.40;99.90;;;;;;5130674;27;20259;-74
2023/10/05 09:27:16;;;;;;;0.60;0.60;;;11.50;99.90;;;;;;5131025;27;20739;-74
2023/10/05 09:29:43;;;;;;;0.60;0.60;;;11.40;99.90;;;;;;5130645;27;20593;-74
2023/10/05 09:32:25;;;;;;;0.60;0.60;;;11.50;99.90;;;;;;5123144;27;20198;-74
2023/10/05 09:34:51;;;;;;;0.60;0.60;;;11.50;99.90;;;;;;5129375;27;20203;-74
2023/10/05 09:37:23;;;;;;;0.60;0.60;;;11.50;99.90;;;;;;5129363;27;20218;-74
2023/10/05 09:39:49;;;;;;;0.60;0.60;;;11.60;99.90;;;;;;5130524;27;20199;-74
2023/10/05 09:42:25;;;;;;;0.50;0.50;;;11.70;99.90;;;;;;5130791;27;20280;-74
2023/10/05 09:44:52;;;;;;;0.55;0.55;;;11.80;99.90;;;;;;5129093;27;20277;-74
2023/10/05 09:47:24;;;;;;;2.47;1.40;;;12.00;99.90;;;;;;5130202;27;20187;-74
2023/10/05 09:49:54;;;;;;;0.50;0.50;;;12.00;99.90;;;;;;5127020;27;20191;-77
2023/10/05 09:52:24;;;;;;;0.60;0.60;;;12.00;99.90;;;;;;5130112;27;20691;-76
2023/10/05 09:54:50;;;;;;;0.60;0.60;;;11.90;99.90;;;;;;5114202;27;20200;-76
2023/10/05 09:57:20;;;;;;;0.55;0.55;;;11.90;99.90;;;;;;5109850;28;20211;-77
2023/10/05 09:59:57;;;;;;;0.57;0.57;;;12.20;99.90;;;;;;5109869;28;20237;-74
2023/10/05 10:02:34;;;;;;;0.60;0.60;;;12.10;99.90;;;;;;5091348;28;20205;-73
2023/10/05 10:05:25;;;;;;;0.52;0.52;;;12.10;99.90;;;;;;5097294;27;20710;-74
2023/10/05 10:07:56;;;;;;;0.60;0.60;;;12.30;99.90;;;;;;5130295;27;20661;-74
2023/10/05 10:10:24;;;;;;;0.55;0.55;;;12.30;99.90;;;;;;5129487;27;20247;-74
2023/10/05 10:12:52;;;;;;;0.60;0.60;;;12.50;99.90;;;;;;5130022;27;20245;-74
2023/10/05 10:15:34;;;;;;;0.60;0.60;;;12.70;99.90;;;;;;5130158;27;20662;-73
2023/10/05 10:18:37;;;;;;;0.60;0.60;;;12.80;99.90;;;;;;5111453;27;20204;-74
2023/10/05 10:20:56;;;;;;;0.57;0.57;;;12.70;99.90;;;;;;5124743;27;20573;-73
2023/10/05 10:23:27;;;;;;;0.60;0.60;;;12.70;99.90;;;;;;5129956;27;20269;-74
2023/10/05 10:26:16;;;;;;;1.45;1.35;;;12.70;99.90;;;;;;5130013;27;20218;-75
2023/10/05 10:31:18;;;;;;;0.60;0.60;;;12.70;99.90;;;;;;5130127;27;20217;-74
2023/10/05 10:33:50;;;;;;;0.60;0.60;;;12.80;99.90;;;;;;5129824;27;20273;-74
2023/10/05 10:36:18;;;;;;;0.60;0.60;;;12.80;99.90;;;;;;5129773;27;20750;-74
2023/10/05 10:38:50;;;;;;;0.50;0.50;;;12.90;99.90;;;;;;5129777;27;20190;-73
2023/10/05 10:41:16;;;;;;;0.50;0.50;;;12.90;99.90;;;;;;5129614;27;20195;-73
2023/10/05 10:43:49;;;;;;;0.50;0.50;;;13.20;99.90;;;;;;5129623;27;20273;-73
2023/10/05 10:46:30;;;;;;;0.50;0.50;;;13.40;99.90;;;;;;5104246;28;20195;-74
2023/10/05 10:48:57;;;;;;;0.50;0.50;;;13.70;99.90;;;;;;5090747;28;20279;-73
2023/10/05 10:51:27;;;;;;;0.50;0.50;;;13.70;99.90;;;;;;5109347;28;20559;-74
2023/10/05 10:53:57;;;;;;;0.55;0.55;;;13.60;99.90;;;;;;5116635;28;20697;-73
2023/10/05 10:56:30;;;;;;;0.50;0.50;;;13.40;99.90;;;;;;5129603;27;20199;-73
2023/10/05 10:58:57;;;;;;;0.60;0.60;;;13.40;99.90;;;;;;5130532;27;20191;-75
2023/10/05 11:01:28;;;;;;;0.50;0.50;;;13.20;99.90;;;;;;5121362;27;20227;-75
2023/10/05 11:04:04;;;;;;;0.52;0.52;;;13.30;99.90;;;;;;5113607;28;20244;-75
2023/10/05 11:06:30;;;;;;;0.75;0.75;;;13.60;99.90;;;;;;5131350;27;20602;-75
2023/10/05 11:09:09;;;;;;;0.50;0.50;;;13.70;99.90;;;;;;5134012;27;20199;-74
2023/10/05 11:11:37;;;;;;;0.50;0.50;;;13.90;99.90;;;;;;5114820;27;20206;-73
2023/10/05 11:14:05;;;;;;;0.55;0.55;;;13.90;99.90;;;;;;5133674;27;20230;-75
2023/10/05 11:16:43;;;;;;;0.50;0.50;;;14.00;99.90;;;;;;5133413;27;20214;-73
2023/10/05 11:19:13;;;;;;;0.43;0.43;;;13.90;99.90;;;;;;5133790;27;20182;-73
2023/10/05 11:21:45;;;;;;;0.50;0.50;;;14.00;99.90;;;;;;5133348;27;20278;-73
2023/10/05 11:24:15;;;;;;;0.50;0.50;;;13.90;99.90;;;;;;5133229;27;20203;-74
2023/10/05 11:29:29;;;;;;;0.50;0.50;;;13.70;99.90;;;;;;5133327;27;20205;-74
2023/10/05 11:32:01;;;;;;;0.60;0.60;;;13.80;99.90;;;;;;5133142;27;20585;-74
2023/10/05 11:34:29;;;;;;;8.88;0.80;;;13.80;99.90;;;;;;5133159;27;20187;-74
2023/10/05 11:36:58;;;;;;;0.50;0.50;;;14.00;99.90;;;;;;5133343;27;20187;-75
2023/10/05 11:39:27;;;;;;;0.50;0.50;;;13.80;99.90;;;;;;5133073;27;20264;-73
2023/10/05 11:41:58;;;;;;;0.40;0.40;;;13.70;99.90;;;;;;5131646;27;20187;-74
2023/10/05 11:44:25;;;;;;;0.50;0.50;;;13.80;99.90;;;;;;5112422;28;20280;-74
2023/10/05 11:46:54;;;;;;;0.40;0.40;;;14.10;99.90;;;;;;5112286;28;20810;-74
2023/10/05 11:49:30;;;;;;;0.45;0.45;;;14.10;99.90;;;;;;5112136;28;20256;-74
2023/10/05 11:51:56;;;;;;;0.50;0.50;;;14.10;99.90;;;;;;5112294;28;20207;-73
2023/10/05 11:54:34;;;;;;;0.50;0.50;;;14.20;99.90;;;;;;5123656;27;20662;-74
2023/10/05 11:57:00;;;;;;;0.50;0.50;;;14.30;99.90;;;;;;5130807;27;20213;-75
2023/10/05 11:59:32;;;;;;;0.70;0.70;;;14.30;99.90;;;;;;5112093;28;20195;-76
2023/10/05 12:01:57;;;;;;;0.50;0.50;;;14.60;99.90;;;;;;5118713;27;20218;-74
2023/10/05 12:04:24;;;;;;;0.60;0.60;;;14.80;99.90;;;;;;5093568;28;20663;-75
2023/10/05 12:06:58;;;;;;;0.40;0.40;;;14.20;99.90;;;;;;5112165;28;20192;-74
2023/10/05 12:09:32;;;;;;;0.50;0.50;;;14.10;99.90;;;;;;5112022;28;20197;-74
2023/10/05 12:11:59;;;;;;;0.50;0.50;;;13.90;99.90;;;;;;5111731;28;20694;-74
2023/10/05 12:14:25;;;;;;;0.45;0.45;;;13.90;99.90;;;;;;5093766;28;20278;-74
2023/10/05 12:16:52;;;;;;;0.50;0.50;;;13.70;99.90;;;;;;5112298;28;20195;-74
2023/10/05 12:19:27;;;;;;;0.50;0.50;;;13.50;99.90;;;;;;5113005;27;20191;-77
2023/10/05 12:21:55;;;;;;;0.50;0.50;;;13.50;99.90;;;;;;5113523;27;20251;-78
2023/10/05 12:24:21;;;;;;;0.50;0.50;;;13.50;99.90;;;;;;5129712;27;20190;-78
2023/10/05 12:26:47;;;;;;;0.40;0.40;;;13.40;99.90;;;;;;5111696;28;20840;-77
2023/10/05 12:29:13;;;;;;;0.40;0.40;;;13.20;99.90;;;;;;5111779;28;20291;-77
2023/10/05 12:31:45;;;;;;;0.50;0.50;;;13.20;99.90;;;;;;5111632;28;20213;-78
2023/10/05 12:34:17;;;;;;;0.55;0.55;;;13.20;99.90;;;;;;5111891;28;20594;-77
2023/10/05 12:36:49;;;;;;;0.60;0.60;;;13.30;99.90;;;;;;5111373;28;20262;-78
2023/10/05 12:39:26;;;;;;;0.50;0.50;;;13.40;99.90;;;;;;5111503;28;20213;-79
2023/10/05 12:41:54;;;;;;;0.50;0.50;;;13.40;99.90;;;;;;5111650;28;20195;-78
2023/10/05 12:44:20;;;;;;;0.50;0.50;;;13.30;99.90;;;;;;5111457;28;20222;-79
2023/10/05 12:46:47;;;;;;;0.45;0.45;;;13.20;99.90;;;;;;5111184;28;20670;-77
2023/10/05 12:49:14;;;;;;;0.50;0.50;;;13.10;99.90;;;;;;5111325;28;20285;-77
2023/10/05 12:51:42;;;;;;;0.50;0.50;;;12.90;99.90;;;;;;5111274;28;20214;-79
2023/10/05 12:56:53;;;;;;;0.50;0.50;;;12.70;99.90;;;;;;5111064;28;20275;-79
2023/10/05 12:59:19;;;;;;;0.50;0.50;;;12.60;99.90;;;;;;5110635;27;20278;-78
2023/10/05 13:01:46;;;;;;;0.50;0.50;;;12.40;99.90;;;;;;5111266;28;20575;-77
2023/10/05 13:04:12;;;;;;;0.50;0.50;;;12.30;99.90;;;;;;5110946;28;20891;-78
2023/10/05 13:06:39;;;;;;;0.63;0.63;;;12.30;99.90;;;;;;5110640;28;20556;-77
2023/10/05 13:09:11;;;;;;;0.60;0.60;;;12.30;99.90;;;;;;5110882;28;20195;-78
2023/10/05 13:11:39;;;;;;;0.50;0.50;;;12.30;99.90;;;;;;5110433;28;20211;-77
2023/10/05 13:14:08;;;;;;;0.60;0.60;;;12.40;99.90;;;;;;5110608;28;20195;-78
2023/10/05 13:16:38;;;;;;;0.60;0.60;;;12.40;99.90;;;;;;5119872;27;20210;-78
2023/10/05 13:19:06;;;;;;;0.50;0.50;;;12.20;99.90;;;;;;5131171;27;20683;-76
2023/10/05 13:21:35;;;;;;;0.50;0.50;;;12.20;99.90;;;;;;5112633;27;20202;-74
2023/10/05 13:24:00;;;;;;;0.60;0.60;;;12.20;99.90;;;;;;5112006;27;20308;-73
2023/10/05 13:26:28;;;;;;;1.10;1.02;;;12.10;99.90;;;;;;5112811;27;20282;-74
2023/10/05 13:28:58;;;;;;;0.50;0.50;;;11.90;99.90;;;;;;5131429;27;20666;-74
2023/10/05 13:31:27;;;;;;;0.60;0.60;;;11.60;99.90;;;;;;5130825;27;20202;-75